Terminal Aerodrome Forecast
Issued by NWS

Current Version | Previous Version | Text Only | Print | Product List | Glossary On
Versions: 1 2 3 4 5 6 7 8 9 10 11 12
000
FTUS42 TJSJ 070545
TAFJSJ
TAF
TJSJ 070545Z 0706/0806 10009KT P6SM FEW030
     FM071330 08018G25KT P6SM SCT030
     FM072200 10011KT P6SM FEW035=

USA.gov is the U.S. government's official web portal to all federal, state and local government web resources and services.